Smit Tyee — VG9196 — position and weather

sailwx.info

Track history (hours):
 
Tides and Currents Weather Stations Pressure Air Temp Water Temp Dewpoint Dewpoint Depression Visibility Wind Speed Wind Dir Waves Ship Positions

Smit Tyee

Last reported at 2017-Dec-14 01:24 UTC. Time now 2017-Dec-17 12:09 UTC.
Position N 49°12' W 122°55'.

Length 12 m; draft 2.1 m.

Type: Tug. MMSI: 316009842.

Date/timePositionNaut miles runAvg speedWind from/ knotsBaromVisibWave heightAir tempDewpointWater temp
2017-Dec-14 01:24N 49°12' W 122°55'3 6.7
2017-Dec-14 01:00N 49°13' W 122°52'3 6.7
2017-Dec-14 00:30N 49°13' W 122°46'3 3.3
2017-Dec-13 23:45N 49°13' W 122°43'0 0.1
2017-Dec-13 23:25N 49°13' W 122°43'0 0.0
2017-Dec-13 23:00N 49°13' W 122°43'0 0.0
2017-Dec-13 22:19N 49°13' W 122°43'0 0.0
2017-Dec-13 17:40N 49°12' W 122°42'0 0.1
2017-Dec-13 15:25N 49°12' W 122°42'0 0.0
2017-Dec-12 22:36N 49°12' W 122°42'0 0.4
2017-Dec-12 22:29N 49°12' W 122°42'0 0.0
2017-Dec-12 22:00N 49°13' W 122°42'0 0.0
2017-Dec-12 21:30N 49°13' W 122°42'0 0.0
2017-Dec-12 21:00N 49°13' W 122°42'0 0.0
2017-Dec-12 16:50N 49°13' W 122°42'0 0.1
2017-Dec-12 16:17N 49°13' W 122°42'3 3.2
2017-Dec-12 15:16N 49°13' W 122°47'3 4.2
2017-Dec-12 14:37N 49°13' W 122°52'1 4.4
2017-Dec-12 14:30N 49°13' W 122°52'2 0.8
2017-Dec-12 11:59N 49°12' W 122°55'4 8.4
2017-Dec-12 11:30N 49°13' W 122°49'4 7.1
2017-Dec-12 10:52N 49°15' W 122°43'3 6.7
2017-Dec-12 10:29N 49°17' W 122°41'1 1.2
2017-Dec-12 09:25N 49°19' W 122°41'1 2.9
2017-Dec-12 08:59N 49°17' W 122°41'8 2.5
2017-Dec-12 06:00N 49°13' W 122°50'2 4.8
2017-Dec-12 05:30N 49°12' W 122°54'2 4.7
2017-Dec-12 05:00N 49°10' W 122°55'2 4.1
2017-Dec-12 04:29N 49°09' W 122°58'2 4.5
2017-Dec-12 04:00N 49°09' W 123°02'2 3.4
2017-Dec-12 03:29N 49°08' W 123°03'0 0.9
2017-Dec-12 02:59N 49°07' W 123°04'4 8.8
2017-Dec-12 02:30N 49°09' W 122°58'5 9.2
2017-Dec-12 02:00N 49°13' W 122°53'510.5
2017-Dec-12 01:29N 49°13' W 122°45'2 0.3
2017-Dec-11 18:27N 49°12' W 122°42'1 1.3
2017-Dec-11 18:00N 49°12' W 122°43'2 3.3
2017-Dec-11 17:29N 49°12' W 122°40'6 0.7
2017-Dec-11 08:17N 49°13' W 122°50'1 5.0
2017-Dec-11 07:59N 49°13' W 122°52'2 3.6
2017-Dec-11 07:25N 49°12' W 122°54'1 0.1
2017-Dec-10 13:23N 49°11' W 122°56'0 0.7
2017-Dec-10 12:59N 49°11' W 122°56'1 1.5
2017-Dec-10 12:23N 49°12' W 122°57'2 4.2
2017-Dec-10 12:00N 49°11' W 122°59'2 3.7
2017-Dec-10 11:30N 49°12' W 123°02'1 2.6
2017-Dec-10 11:00N 49°12' W 123°04'0 0.0
2017-Dec-10 10:30N 49°12' W 123°04'0 0.0
2017-Dec-10 10:00N 49°12' W 123°04'2 3.2
2017-Dec-10 09:30N 49°12' W 123°06'2 4.8
2017-Dec-10 09:00N 49°13' W 123°10'3 5.3
2017-Dec-10 08:30N 49°14' W 123°13'3 5.1
2017-Dec-10 07:59N 49°15' W 123°17'3 6.3
2017-Dec-10 07:29N 49°16' W 123°21'1 1.4
2017-Dec-10 07:00N 49°16' W 123°22'0 0.2
2017-Dec-10 06:30N 49°16' W 123°22'1 1.4
2017-Dec-10 06:01N 49°15' W 123°23'0 0.4
2017-Dec-10 05:28N 49°15' W 123°23'1 1.8
2017-Dec-10 05:00N 49°15' W 123°21'3 5.5
2017-Dec-10 04:30N 49°16' W 123°17'3 5.5
2017-Dec-10 03:59N 49°14' W 123°14'3 5.8
2017-Dec-10 03:29N 49°13' W 123°10'2 4.7
2017-Dec-10 03:00N 49°12' W 123°06'3 5.7
2017-Dec-10 02:30N 49°12' W 123°02'3 5.5
2017-Dec-10 01:59N 49°11' W 122°58'1 1.3
2017-Dec-10 01:16N 49°11' W 122°56'0 0.0
2017-Dec-10 01:00N 49°11' W 122°56'1 1.3
2017-Dec-10 00:11N 49°12' W 122°56'1 3.3
2017-Dec-09 23:53N 49°11' W 122°56'1 0.0
2017-Dec-09 00:52N 49°12' W 122°57'0 0.0
2017-Dec-08 17:49N 49°12' W 122°57'1 4.0
2017-Dec-08 17:30N 49°11' W 122°58'3 4.7
2017-Dec-08 16:52N 49°12' W 123°02'1 4.0
2017-Dec-08 16:30N 49°12' W 123°05'0 0.7
2017-Dec-08 16:00N 49°12' W 123°05'0 0.1
2017-Dec-08 15:30N 49°12' W 123°05'0 0.1
2017-Dec-08 15:00N 49°12' W 123°05'0 0.1
2017-Dec-08 14:30N 49°12' W 123°05'1 1.7
2017-Dec-08 14:00N 49°12' W 123°04'0 0.0
2017-Dec-08 13:30N 49°12' W 123°04'0 0.0
2017-Dec-08 13:00N 49°12' W 123°04'0 0.0
2017-Dec-08 12:30N 49°12' W 123°04'0 0.0
2017-Dec-08 12:00N 49°12' W 123°04'0 0.0
2017-Dec-08 11:30N 49°12' W 123°04'0 0.0
2017-Dec-08 11:00N 49°12' W 123°04'0 0.0
2017-Dec-08 10:30N 49°12' W 123°04'0 0.0
2017-Dec-08 10:00N 49°12' W 123°04'0 0.0
2017-Dec-08 09:30N 49°12' W 123°04'0 0.0
2017-Dec-08 09:00N 49°12' W 123°04'0 0.0
2017-Dec-08 08:30N 49°12' W 123°04'0 0.0
2017-Dec-08 08:00N 49°12' W 123°04'0 0.0
2017-Dec-08 07:30N 49°12' W 123°04'0 0.0
2017-Dec-08 07:00N 49°12' W 123°04'0 0.0
2017-Dec-08 06:30N 49°12' W 123°04'0 0.0
2017-Dec-08 06:00N 49°12' W 123°04'0 0.0
2017-Dec-08 05:30N 49°12' W 123°04'0 0.0
2017-Dec-08 05:00N 49°12' W 123°04'0 0.0
2017-Dec-08 04:30N 49°12' W 123°04'0 0.0
2017-Dec-08 04:00N 49°12' W 123°04'0 0.0
2017-Dec-08 03:30N 49°12' W 123°04'0 0.0
2017-Dec-08 03:00N 49°12' W 123°04'0 0.0
2017-Dec-08 02:30N 49°12' W 123°04'0 0.0
2017-Dec-08 02:00N 49°12' W 123°04'1 1.3
2017-Dec-08 01:30N 49°12' W 123°05'1 1.2
2017-Dec-08 01:00N 49°12' W 123°06'1 1.9
2017-Dec-08 00:30N 49°12' W 123°07'1 2.9
2017-Dec-08 00:00N 49°12' W 123°05'1 1.1
2017-Dec-07 23:30N 49°12' W 123°04'0 0.8
2017-Dec-07 23:00N 49°13' W 123°05'0 0.1
2017-Dec-07 22:30N 49°12' W 123°05'0 0.0
2017-Dec-07 22:00N 49°12' W 123°05'0 0.1
2017-Dec-07 21:30N 49°12' W 123°05'0 0.1
2017-Dec-07 21:00N 49°12' W 123°05'1 1.2
2017-Dec-07 20:30N 49°12' W 123°04'1 2.3
2017-Dec-07 20:00N 49°12' W 123°06'1 1.9
2017-Dec-07 19:30N 49°12' W 123°07'2 3.5
2017-Dec-07 19:00N 49°12' W 123°04'1 1.4
2017-Dec-07 18:30N 49°12' W 123°03'0 0.0
2017-Dec-07 18:00N 49°12' W 123°03'0 0.0
2017-Dec-07 17:30N 49°12' W 123°03'0 0.0
2017-Dec-07 17:00N 49°12' W 123°03'1 1.0
2017-Dec-07 16:30N 49°12' W 123°02'2 3.6
2017-Dec-07 16:00N 49°11' W 123°00'1 2.9
2017-Dec-07 15:30N 49°11' W 122°58'1 1.2
2017-Dec-07 14:42N 49°12' W 122°57'0 0.1
2017-Dec-07 14:01N 49°12' W 122°57'0 6.4
2017-Dec-07 14:00N 49°12' W 122°57'3 6.0
2017-Dec-07 13:30N 49°12' W 123°02'2 3.0
2017-Dec-07 13:00N 49°12' W 123°04'0 0.0
2017-Dec-07 12:30N 49°12' W 123°04'0 0.0
2017-Dec-07 12:00N 49°12' W 123°04'0 0.0
2017-Dec-07 11:30N 49°12' W 123°04'0 0.0
2017-Dec-07 11:00N 49°12' W 123°04'0 0.0
2017-Dec-07 10:30N 49°12' W 123°04'0 0.0
2017-Dec-07 10:00N 49°12' W 123°04'0 0.0
2017-Dec-07 09:30N 49°12' W 123°04'0 0.0
2017-Dec-07 09:00N 49°12' W 123°04'0 0.0
2017-Dec-07 08:30N 49°12' W 123°04'0 0.0
2017-Dec-07 08:00N 49°12' W 123°04'0 0.0
2017-Dec-07 07:30N 49°12' W 123°04'0 0.0
2017-Dec-07 07:00N 49°12' W 123°04'0 0.0
2017-Dec-07 06:30N 49°12' W 123°04'0 0.0
2017-Dec-07 06:00N 49°12' W 123°04'0 0.0
2017-Dec-07 05:30N 49°12' W 123°04'0 0.0
2017-Dec-07 05:00N 49°12' W 123°04'0 0.0
2017-Dec-07 04:30N 49°12' W 123°04'0 0.0
2017-Dec-07 04:00N 49°12' W 123°04'0 0.0
2017-Dec-07 03:30N 49°12' W 123°04'0 0.0
2017-Dec-07 03:00N 49°12' W 123°04'0 0.0
2017-Dec-07 02:30N 49°12' W 123°04'0 0.0
2017-Dec-07 02:00N 49°12' W 123°04'0 0.0
2017-Dec-07 01:30N 49°12' W 123°04'0 0.0
2017-Dec-07 01:00N 49°12' W 123°04'0 0.0
2017-Dec-07 00:30N 49°12' W 123°04'0 0.0
2017-Dec-07 00:00N 49°12' W 123°04'0 0.0
2017-Dec-06 23:30N 49°12' W 123°04'0 0.0
2017-Dec-06 23:00N 49°12' W 123°04'0 0.0
2017-Dec-06 22:30N 49°12' W 123°04'0 0.0
2017-Dec-06 22:00N 49°12' W 123°04'0 0.0
2017-Dec-06 21:30N 49°12' W 123°04'0 0.1
2017-Dec-06 21:00N 49°12' W 123°04'  
2017-Dec-04 10:23N 49°11' W 122°58'2 5.9
2017-Dec-04 10:00N 49°12' W 123°01'2 3.3
2017-Dec-04 09:29N 49°12' W 123°04'0 0.0
2017-Dec-04 09:00N 49°12' W 123°04'0 0.0
2017-Dec-04 08:30N 49°12' W 123°04'0 0.0
2017-Dec-04 08:00N 49°12' W 123°04'0 0.0
2017-Dec-04 07:30N 49°12' W 123°04'0 0.0
2017-Dec-04 07:00N 49°12' W 123°04'0 0.0
2017-Dec-04 06:30N 49°12' W 123°04'0 0.0
2017-Dec-04 06:00N 49°12' W 123°04'0 0.0
2017-Dec-04 05:30N 49°12' W 123°04'0 0.0
2017-Dec-04 05:00N 49°12' W 123°04'0 0.0
2017-Dec-04 04:30N 49°12' W 123°04'0 0.0
2017-Dec-04 04:00N 49°12' W 123°04'0 0.0
2017-Dec-04 03:30N 49°12' W 123°04'0 0.0
2017-Dec-04 03:00N 49°12' W 123°04'0 0.0
2017-Dec-04 02:30N 49°12' W 123°04'0 0.0
2017-Dec-04 02:00N 49°12' W 123°04'0 0.0
2017-Dec-04 01:30N 49°12' W 123°04'  
Track history (hours):
 
Tides and Currents Weather Stations Pressure Air Temp Water Temp Dewpoint Dewpoint Depression Visibility Wind Speed Wind Dir Waves Ship Positions

Smit Tyee

Last reported at 2017-Dec-14 01:24 UTC. Time now 2017-Dec-17 12:09 UTC.
Position N 49°12' W 122°55'.

Length 12 m; draft 2.1 m.

Type: Tug. MMSI: 316009842.

Date/timePositionNaut miles runAvg speedWind from/ knotsBaromVisibWave heightAir tempDewpointWater temp
2017-Dec-14 01:24N 49°12' W 122°55'3 6.7
2017-Dec-14 01:00N 49°13' W 122°52'3 6.7
2017-Dec-14 00:30N 49°13' W 122°46'3 3.3
2017-Dec-13 23:45N 49°13' W 122°43'0 0.1
2017-Dec-13 23:25N 49°13' W 122°43'0 0.0
2017-Dec-13 23:00N 49°13' W 122°43'0 0.0
2017-Dec-13 22:19N 49°13' W 122°43'0 0.0
2017-Dec-13 17:40N 49°12' W 122°42'0 0.1
2017-Dec-13 15:25N 49°12' W 122°42'0 0.0
2017-Dec-12 22:36N 49°12' W 122°42'0 0.4
2017-Dec-12 22:29N 49°12' W 122°42'0 0.0
2017-Dec-12 22:00N 49°13' W 122°42'0 0.0
2017-Dec-12 21:30N 49°13' W 122°42'0 0.0
2017-Dec-12 21:00N 49°13' W 122°42'0 0.0
2017-Dec-12 16:50N 49°13' W 122°42'0 0.1
2017-Dec-12 16:17N 49°13' W 122°42'3 3.2
2017-Dec-12 15:16N 49°13' W 122°47'3 4.2
2017-Dec-12 14:37N 49°13' W 122°52'1 4.4
2017-Dec-12 14:30N 49°13' W 122°52'2 0.8
2017-Dec-12 11:59N 49°12' W 122°55'4 8.4
2017-Dec-12 11:30N 49°13' W 122°49'4 7.1
2017-Dec-12 10:52N 49°15' W 122°43'3 6.7
2017-Dec-12 10:29N 49°17' W 122°41'1 1.2
2017-Dec-12 09:25N 49°19' W 122°41'1 2.9
2017-Dec-12 08:59N 49°17' W 122°41'8 2.5
2017-Dec-12 06:00N 49°13' W 122°50'2 4.8
2017-Dec-12 05:30N 49°12' W 122°54'2 4.7
2017-Dec-12 05:00N 49°10' W 122°55'2 4.1
2017-Dec-12 04:29N 49°09' W 122°58'2 4.5
2017-Dec-12 04:00N 49°09' W 123°02'2 3.4
2017-Dec-12 03:29N 49°08' W 123°03'0 0.9
2017-Dec-12 02:59N 49°07' W 123°04'4 8.8
2017-Dec-12 02:30N 49°09' W 122°58'5 9.2
2017-Dec-12 02:00N 49°13' W 122°53'510.5
2017-Dec-12 01:29N 49°13' W 122°45'2 0.3
2017-Dec-11 18:27N 49°12' W 122°42'1 1.3
2017-Dec-11 18:00N 49°12' W 122°43'2 3.3
2017-Dec-11 17:29N 49°12' W 122°40'6 0.7
2017-Dec-11 08:17N 49°13' W 122°50'1 5.0
2017-Dec-11 07:59N 49°13' W 122°52'2 3.6
2017-Dec-11 07:25N 49°12' W 122°54'1 0.1
2017-Dec-10 13:23N 49°11' W 122°56'0 0.7
2017-Dec-10 12:59N 49°11' W 122°56'1 1.5
2017-Dec-10 12:23N 49°12' W 122°57'2 4.2
2017-Dec-10 12:00N 49°11' W 122°59'2 3.7
2017-Dec-10 11:30N 49°12' W 123°02'1 2.6
2017-Dec-10 11:00N 49°12' W 123°04'0 0.0
2017-Dec-10 10:30N 49°12' W 123°04'0 0.0
2017-Dec-10 10:00N 49°12' W 123°04'2 3.2
2017-Dec-10 09:30N 49°12' W 123°06'2 4.8
2017-Dec-10 09:00N 49°13' W 123°10'3 5.3
2017-Dec-10 08:30N 49°14' W 123°13'3 5.1
2017-Dec-10 07:59N 49°15' W 123°17'3 6.3
2017-Dec-10 07:29N 49°16' W 123°21'1 1.4
2017-Dec-10 07:00N 49°16' W 123°22'0 0.2
2017-Dec-10 06:30N 49°16' W 123°22'1 1.4
2017-Dec-10 06:01N 49°15' W 123°23'0 0.4
2017-Dec-10 05:28N 49°15' W 123°23'1 1.8
2017-Dec-10 05:00N 49°15' W 123°21'3 5.5
2017-Dec-10 04:30N 49°16' W 123°17'3 5.5
2017-Dec-10 03:59N 49°14' W 123°14'3 5.8
2017-Dec-10 03:29N 49°13' W 123°10'2 4.7
2017-Dec-10 03:00N 49°12' W 123°06'3 5.7
2017-Dec-10 02:30N 49°12' W 123°02'3 5.5
2017-Dec-10 01:59N 49°11' W 122°58'1 1.3
2017-Dec-10 01:16N 49°11' W 122°56'0 0.0
2017-Dec-10 01:00N 49°11' W 122°56'1 1.3
2017-Dec-10 00:11N 49°12' W 122°56'1 3.3
2017-Dec-09 23:53N 49°11' W 122°56'1 0.0
2017-Dec-09 00:52N 49°12' W 122°57'0 0.0
2017-Dec-08 17:49N 49°12' W 122°57'1 4.0
2017-Dec-08 17:30N 49°11' W 122°58'3 4.7
2017-Dec-08 16:52N 49°12' W 123°02'1 4.0
2017-Dec-08 16:30N 49°12' W 123°05'0 0.7
2017-Dec-08 16:00N 49°12' W 123°05'0 0.1
2017-Dec-08 15:30N 49°12' W 123°05'0 0.1
2017-Dec-08 15:00N 49°12' W 123°05'0 0.1
2017-Dec-08 14:30N 49°12' W 123°05'1 1.7
2017-Dec-08 14:00N 49°12' W 123°04'0 0.0
2017-Dec-08 13:30N 49°12' W 123°04'0 0.0
2017-Dec-08 13:00N 49°12' W 123°04'0 0.0
2017-Dec-08 12:30N 49°12' W 123°04'0 0.0
2017-Dec-08 12:00N 49°12' W 123°04'0 0.0
2017-Dec-08 11:30N 49°12' W 123°04'0 0.0
2017-Dec-08 11:00N 49°12' W 123°04'0 0.0
2017-Dec-08 10:30N 49°12' W 123°04'0 0.0
2017-Dec-08 10:00N 49°12' W 123°04'0 0.0
2017-Dec-08 09:30N 49°12' W 123°04'0 0.0
2017-Dec-08 09:00N 49°12' W 123°04'0 0.0
2017-Dec-08 08:30N 49°12' W 123°04'0 0.0
2017-Dec-08 08:00N 49°12' W 123°04'0 0.0
2017-Dec-08 07:30N 49°12' W 123°04'0 0.0
2017-Dec-08 07:00N 49°12' W 123°04'0 0.0
2017-Dec-08 06:30N 49°12' W 123°04'0 0.0
2017-Dec-08 06:00N 49°12' W 123°04'0 0.0
2017-Dec-08 05:30N 49°12' W 123°04'0 0.0
2017-Dec-08 05:00N 49°12' W 123°04'0 0.0
2017-Dec-08 04:30N 49°12' W 123°04'0 0.0
2017-Dec-08 04:00N 49°12' W 123°04'0 0.0
2017-Dec-08 03:30N 49°12' W 123°04'0 0.0
2017-Dec-08 03:00N 49°12' W 123°04'0 0.0
2017-Dec-08 02:30N 49°12' W 123°04'0 0.0
2017-Dec-08 02:00N 49°12' W 123°04'1 1.3
2017-Dec-08 01:30N 49°12' W 123°05'1 1.2
2017-Dec-08 01:00N 49°12' W 123°06'1 1.9
2017-Dec-08 00:30N 49°12' W 123°07'1 2.9
2017-Dec-08 00:00N 49°12' W 123°05'1 1.1
2017-Dec-07 23:30N 49°12' W 123°04'0 0.8
2017-Dec-07 23:00N 49°13' W 123°05'0 0.1
2017-Dec-07 22:30N 49°12' W 123°05'0 0.0
2017-Dec-07 22:00N 49°12' W 123°05'0 0.1
2017-Dec-07 21:30N 49°12' W 123°05'0 0.1
2017-Dec-07 21:00N 49°12' W 123°05'1 1.2
2017-Dec-07 20:30N 49°12' W 123°04'1 2.3
2017-Dec-07 20:00N 49°12' W 123°06'1 1.9
2017-Dec-07 19:30N 49°12' W 123°07'2 3.5
2017-Dec-07 19:00N 49°12' W 123°04'1 1.4
2017-Dec-07 18:30N 49°12' W 123°03'0 0.0
2017-Dec-07 18:00N 49°12' W 123°03'0 0.0
2017-Dec-07 17:30N 49°12' W 123°03'0 0.0
2017-Dec-07 17:00N 49°12' W 123°03'1 1.0
2017-Dec-07 16:30N 49°12' W 123°02'2 3.6
2017-Dec-07 16:00N 49°11' W 123°00'1 2.9
2017-Dec-07 15:30N 49°11' W 122°58'1 1.2
2017-Dec-07 14:42N 49°12' W 122°57'0 0.1
2017-Dec-07 14:01N 49°12' W 122°57'0 6.4
2017-Dec-07 14:00N 49°12' W 122°57'3 6.0
2017-Dec-07 13:30N 49°12' W 123°02'2 3.0
2017-Dec-07 13:00N 49°12' W 123°04'0 0.0
2017-Dec-07 12:30N 49°12' W 123°04'0 0.0
2017-Dec-07 12:00N 49°12' W 123°04'0 0.0
2017-Dec-07 11:30N 49°12' W 123°04'0 0.0
2017-Dec-07 11:00N 49°12' W 123°04'0 0.0
2017-Dec-07 10:30N 49°12' W 123°04'0 0.0
2017-Dec-07 10:00N 49°12' W 123°04'0 0.0
2017-Dec-07 09:30N 49°12' W 123°04'0 0.0
2017-Dec-07 09:00N 49°12' W 123°04'0 0.0
2017-Dec-07 08:30N 49°12' W 123°04'0 0.0
2017-Dec-07 08:00N 49°12' W 123°04'0 0.0
2017-Dec-07 07:30N 49°12' W 123°04'0 0.0
2017-Dec-07 07:00N 49°12' W 123°04'0 0.0
2017-Dec-07 06:30N 49°12' W 123°04'0 0.0
2017-Dec-07 06:00N 49°12' W 123°04'0 0.0
2017-Dec-07 05:30N 49°12' W 123°04'0 0.0
2017-Dec-07 05:00N 49°12' W 123°04'0 0.0
2017-Dec-07 04:30N 49°12' W 123°04'0 0.0
2017-Dec-07 04:00N 49°12' W 123°04'0 0.0
2017-Dec-07 03:30N 49°12' W 123°04'0 0.0
2017-Dec-07 03:00N 49°12' W 123°04'0 0.0
2017-Dec-07 02:30N 49°12' W 123°04'0 0.0
2017-Dec-07 02:00N 49°12' W 123°04'0 0.0
2017-Dec-07 01:30N 49°12' W 123°04'0 0.0
2017-Dec-07 01:00N 49°12' W 123°04'0 0.0
2017-Dec-07 00:30N 49°12' W 123°04'0 0.0
2017-Dec-07 00:00N 49°12' W 123°04'0 0.0
2017-Dec-06 23:30N 49°12' W 123°04'0 0.0
2017-Dec-06 23:00N 49°12' W 123°04'0 0.0
2017-Dec-06 22:30N 49°12' W 123°04'0 0.0
2017-Dec-06 22:00N 49°12' W 123°04'0 0.0
2017-Dec-06 21:30N 49°12' W 123°04'0 0.1
2017-Dec-06 21:00N 49°12' W 123°04'  
2017-Dec-04 10:23N 49°11' W 122°58'2 5.9
2017-Dec-04 10:00N 49°12' W 123°01'2 3.3
2017-Dec-04 09:29N 49°12' W 123°04'0 0.0
2017-Dec-04 09:00N 49°12' W 123°04'0 0.0
2017-Dec-04 08:30N 49°12' W 123°04'0 0.0
2017-Dec-04 08:00N 49°12' W 123°04'0 0.0
2017-Dec-04 07:30N 49°12' W 123°04'0 0.0
2017-Dec-04 07:00N 49°12' W 123°04'0 0.0
2017-Dec-04 06:30N 49°12' W 123°04'0 0.0
2017-Dec-04 06:00N 49°12' W 123°04'0 0.0
2017-Dec-04 05:30N 49°12' W 123°04'0 0.0
2017-Dec-04 05:00N 49°12' W 123°04'0 0.0
2017-Dec-04 04:30N 49°12' W 123°04'0 0.0
2017-Dec-04 04:00N 49°12' W 123°04'0 0.0
2017-Dec-04 03:30N 49°12' W 123°04'0 0.0
2017-Dec-04 03:00N 49°12' W 123°04'0 0.0
2017-Dec-04 02:30N 49°12' W 123°04'0 0.0
2017-Dec-04 02:00N 49°12' W 123°04'0 0.0
2017-Dec-04 01:30N 49°12' W 123°04'  

Dump ship's entire track history